sensor_id;sensor_type;location;lat;lon;timestamp;temperature;humidity
5346;DHT22;2695;49.444;11.054;2022-09-09T00:00:17;15.40;99.90
5346;DHT22;2695;49.444;11.054;2022-09-09T00:02:52;15.40;99.90
5346;DHT22;2695;49.444;11.054;2022-09-09T00:05:29;15.40;99.90
5346;DHT22;2695;49.444;11.054;2022-09-09T00:08:00;15.40;99.90
5346;DHT22;2695;49.444;11.054;2022-09-09T00:10:32;15.30;99.90
5346;DHT22;2695;49.444;11.054;2022-09-09T00:13:05;15.40;99.90
5346;DHT22;2695;49.444;11.054;2022-09-09T00:15:45;15.30;99.90
5346;DHT22;2695;49.444;11.054;2022-09-09T00:18:23;15.30;99.90
5346;DHT22;2695;49.444;11.054;2022-09-09T00:20:57;15.20;99.90
5346;DHT22;2695;49.444;11.054;2022-09-09T00:23:29;15.20;99.90
5346;DHT22;2695;49.444;11.054;2022-09-09T00:26:04;15.20;99.90
5346;DHT22;2695;49.444;11.054;2022-09-09T00:28:38;15.20;99.90
5346;DHT22;2695;49.444;11.054;2022-09-09T00:31:12;15.20;99.90
5346;DHT22;2695;49.444;11.054;2022-09-09T00:33:41;15.20;99.90
5346;DHT22;2695;49.444;11.054;2022-09-09T00:36:13;15.20;99.90
5346;DHT22;2695;49.444;11.054;2022-09-09T00:38:45;15.20;99.90
5346;DHT22;2695;49.444;11.054;2022-09-09T00:41:20;15.10;99.90
5346;DHT22;2695;49.444;11.054;2022-09-09T00:43:56;15.10;99.90
5346;DHT22;2695;49.444;11.054;2022-09-09T00:46:41;15.10;99.90
5346;DHT22;2695;49.444;11.054;2022-09-09T00:49:23;15.10;99.90
5346;DHT22;2695;49.444;11.054;2022-09-09T00:51:59;15.00;99.90
5346;DHT22;2695;49.444;11.054;2022-09-09T00:54:40;15.00;99.90
5346;DHT22;2695;49.444;11.054;2022-09-09T00:57:23;15.00;99.90
5346;DHT22;2695;49.444;11.054;2022-09-09T01:00:00;14.90;99.90
5346;DHT22;2695;49.444;11.054;2022-09-09T01:02:37;15.00;99.90
5346;DHT22;2695;49.444;11.054;2022-09-09T01:05:11;15.00;99.90
5346;DHT22;2695;49.444;11.054;2022-09-09T01:07:44;15.00;99.90
5346;DHT22;2695;49.444;11.054;2022-09-09T01:10:23;15.00;99.90
5346;DHT22;2695;49.444;11.054;2022-09-09T01:12:56;15.00;99.90
5346;DHT22;2695;49.444;11.054;2022-09-09T01:15:29;15.00;99.90
5346;DHT22;2695;49.444;11.054;2022-09-09T01:18:05;15.00;99.90
5346;DHT22;2695;49.444;11.054;2022-09-09T01:20:39;15.00;99.90
5346;DHT22;2695;49.444;11.054;2022-09-09T01:23:33;14.90;99.90
5346;DHT22;2695;49.444;11.054;2022-09-09T01:26:18;14.90;99.90
5346;DHT22;2695;49.444;11.054;2022-09-09T01:28:48;14.90;99.90
5346;DHT22;2695;49.444;11.054;2022-09-09T01:31:20;14.80;99.90
5346;DHT22;2695;49.444;11.054;2022-09-09T01:33:50;14.70;99.90
5346;DHT22;2695;49.444;11.054;2022-09-09T01:36:26;14.80;99.90
5346;DHT22;2695;49.444;11.054;2022-09-09T01:38:56;14.70;99.90
5346;DHT22;2695;49.444;11.054;2022-09-09T01:41:26;14.70;99.90
5346;DHT22;2695;49.444;11.054;2022-09-09T01:43:55;14.70;99.90
5346;DHT22;2695;49.444;11.054;2022-09-09T01:46:25;14.70;99.90
5346;DHT22;2695;49.444;11.054;2022-09-09T01:48:53;14.70;99.90
5346;DHT22;2695;49.444;11.054;2022-09-09T01:51:22;14.70;99.90
5346;DHT22;2695;49.444;11.054;2022-09-09T01:53:51;14.60;99.90
5346;DHT22;2695;49.444;11.054;2022-09-09T01:56:30;15.00;99.90
5346;DHT22;2695;49.444;11.054;2022-09-09T01:59:07;14.60;99.90
5346;DHT22;2695;49.444;11.054;2022-09-09T02:01:46;14.40;99.90
5346;DHT22;2695;49.444;11.054;2022-09-09T02:04:27;14.50;99.90
5346;DHT22;2695;49.444;11.054;2022-09-09T02:07:00;14.50;99.90
5346;DHT22;2695;49.444;11.054;2022-09-09T02:09:30;15.30;99.90
5346;DHT22;2695;49.444;11.054;2022-09-09T02:12:05;14.50;99.90
5346;DHT22;2695;49.444;11.054;2022-09-09T02:14:37;14.60;99.90
5346;DHT22;2695;49.444;11.054;2022-09-09T02:17:09;14.60;99.90
5346;DHT22;2695;49.444;11.054;2022-09-09T02:19:42;15.20;99.90
5346;DHT22;2695;49.444;11.054;2022-09-09T02:22:13;15.20;99.90
5346;DHT22;2695;49.444;11.054;2022-09-09T02:24:41;15.00;99.90
5346;DHT22;2695;49.444;11.054;2022-09-09T02:27:12;14.70;99.90
5346;DHT22;2695;49.444;11.054;2022-09-09T02:29:42;14.60;99.90
5346;DHT22;2695;49.444;11.054;2022-09-09T02:32:15;14.70;99.90
5346;DHT22;2695;49.444;11.054;2022-09-09T02:34:47;14.60;99.90
5346;DHT22;2695;49.444;11.054;2022-09-09T02:37:19;14.70;99.90
5346;DHT22;2695;49.444;11.054;2022-09-09T02:39:48;14.80;99.90
5346;DHT22;2695;49.444;11.054;2022-09-09T02:42:17;13.90;99.90
5346;DHT22;2695;49.444;11.054;2022-09-09T02:44:45;14.90;99.90
5346;DHT22;2695;49.444;11.054;2022-09-09T02:47:25;14.90;99.90
5346;DHT22;2695;49.444;11.054;2022-09-09T02:50:05;14.90;99.90
5346;DHT22;2695;49.444;11.054;2022-09-09T02:52:42;14.90;99.90
5346;DHT22;2695;49.444;11.054;2022-09-09T02:55:18;14.90;99.90
5346;DHT22;2695;49.444;11.054;2022-09-09T02:57:52;14.80;99.90
5346;DHT22;2695;49.444;11.054;2022-09-09T03:00:25;14.80;99.90
5346;DHT22;2695;49.444;11.054;2022-09-09T03:02:54;14.80;99.90
5346;DHT22;2695;49.444;11.054;2022-09-09T03:05:22;15.40;99.90
5346;DHT22;2695;49.444;11.054;2022-09-09T03:07:50;14.80;99.90
5346;DHT22;2695;49.444;11.054;2022-09-09T03:10:18;14.80;99.90
5346;DHT22;2695;49.444;11.054;2022-09-09T03:12:47;14.80;99.90
5346;DHT22;2695;49.444;11.054;2022-09-09T03:15:16;14.80;99.90
5346;DHT22;2695;49.444;11.054;2022-09-09T03:17:45;14.70;99.90
5346;DHT22;2695;49.444;11.054;2022-09-09T03:20:13;14.70;99.90
5346;DHT22;2695;49.444;11.054;2022-09-09T03:22:41;14.80;99.90
5346;DHT22;2695;49.444;11.054;2022-09-09T03:25:10;14.70;99.90
5346;DHT22;2695;49.444;11.054;2022-09-09T03:27:38;14.90;99.90
5346;DHT22;2695;49.444;11.054;2022-09-09T03:30:07;14.60;99.90
5346;DHT22;2695;49.444;11.054;2022-09-09T03:32:37;14.60;99.90
5346;DHT22;2695;49.444;11.054;2022-09-09T03:35:07;15.10;99.90
5346;DHT22;2695;49.444;11.054;2022-09-09T03:37:36;14.60;99.90
5346;DHT22;2695;49.444;11.054;2022-09-09T03:40:06;14.60;99.90
5346;DHT22;2695;49.444;11.054;2022-09-09T03:42:37;14.50;99.90
5346;DHT22;2695;49.444;11.054;2022-09-09T03:45:08;14.60;99.90
5346;DHT22;2695;49.444;11.054;2022-09-09T03:47:38;14.60;99.90
5346;DHT22;2695;49.444;11.054;2022-09-09T03:50:08;14.60;99.90
5346;DHT22;2695;49.444;11.054;2022-09-09T03:52:37;14.60;99.90
5346;DHT22;2695;49.444;11.054;2022-09-09T03:55:06;14.60;99.90
5346;DHT22;2695;49.444;11.054;2022-09-09T03:57:35;14.70;99.90
5346;DHT22;2695;49.444;11.054;2022-09-09T04:00:04;14.70;99.90
5346;DHT22;2695;49.444;11.054;2022-09-09T04:02:33;14.70;99.90
5346;DHT22;2695;49.444;11.054;2022-09-09T04:05:03;14.70;99.90
5346;DHT22;2695;49.444;11.054;2022-09-09T04:07:33;14.80;99.90
5346;DHT22;2695;49.444;11.054;2022-09-09T04:10:01;14.80;99.90
5346;DHT22;2695;49.444;11.054;2022-09-09T04:12:29;14.70;99.90
5346;DHT22;2695;49.444;11.054;2022-09-09T04:14:57;14.80;99.90
5346;DHT22;2695;49.444;11.054;2022-09-09T04:17:25;14.70;99.90
5346;DHT22;2695;49.444;11.054;2022-09-09T04:19:53;14.60;99.90
5346;DHT22;2695;49.444;11.054;2022-09-09T04:22:23;14.60;99.90
5346;DHT22;2695;49.444;11.054;2022-09-09T04:24:51;14.60;99.90
5346;DHT22;2695;49.444;11.054;2022-09-09T04:27:19;14.60;99.90
5346;DHT22;2695;49.444;11.054;2022-09-09T04:29:47;14.60;99.90
5346;DHT22;2695;49.444;11.054;2022-09-09T04:32:15;14.60;99.90
5346;DHT22;2695;49.444;11.054;2022-09-09T04:34:43;14.60;99.90
5346;DHT22;2695;49.444;11.054;2022-09-09T04:37:11;14.60;99.90
5346;DHT22;2695;49.444;11.054;2022-09-09T04:39:40;14.60;99.90
5346;DHT22;2695;49.444;11.054;2022-09-09T04:42:08;14.60;99.90
5346;DHT22;2695;49.444;11.054;2022-09-09T04:44:36;14.70;99.90
5346;DHT22;2695;49.444;11.054;2022-09-09T04:47:05;14.60;99.90
5346;DHT22;2695;49.444;11.054;2022-09-09T04:49:33;14.60;99.90
5346;DHT22;2695;49.444;11.054;2022-09-09T04:52:01;14.60;99.90
5346;DHT22;2695;49.444;11.054;2022-09-09T04:54:29;14.60;99.90
5346;DHT22;2695;49.444;11.054;2022-09-09T04:56:59;14.60;99.90
5346;DHT22;2695;49.444;11.054;2022-09-09T04:59:27;14.60;99.90
5346;DHT22;2695;49.444;11.054;2022-09-09T05:01:55;14.60;99.90
5346;DHT22;2695;49.444;11.054;2022-09-09T05:04:23;14.70;99.90
5346;DHT22;2695;49.444;11.054;2022-09-09T05:06:51;14.70;99.90
5346;DHT22;2695;49.444;11.054;2022-09-09T05:09:19;14.80;99.90
5346;DHT22;2695;49.444;11.054;2022-09-09T05:11:47;14.80;99.90
5346;DHT22;2695;49.444;11.054;2022-09-09T05:14:17;14.90;99.90
5346;DHT22;2695;49.444;11.054;2022-09-09T05:16:45;14.90;99.90
5346;DHT22;2695;49.444;11.054;2022-09-09T05:19:13;15.00;99.90
5346;DHT22;2695;49.444;11.054;2022-09-09T05:21:41;15.00;99.90
5346;DHT22;2695;49.444;11.054;2022-09-09T05:24:10;14.90;99.90
5346;DHT22;2695;49.444;11.054;2022-09-09T05:26:38;14.90;99.90
5346;DHT22;2695;49.444;11.054;2022-09-09T05:29:06;15.00;99.90
5346;DHT22;2695;49.444;11.054;2022-09-09T05:31:36;15.00;99.90
5346;DHT22;2695;49.444;11.054;2022-09-09T05:34:05;15.00;99.90
5346;DHT22;2695;49.444;11.054;2022-09-09T05:36:33;15.10;99.90
5346;DHT22;2695;49.444;11.054;2022-09-09T05:39:01;15.10;99.90
5346;DHT22;2695;49.444;11.054;2022-09-09T05:41:29;15.10;99.90
5346;DHT22;2695;49.444;11.054;2022-09-09T05:43:58;15.20;99.90
5346;DHT22;2695;49.444;11.054;2022-09-09T05:46:28;15.30;99.90
5346;DHT22;2695;49.444;11.054;2022-09-09T05:48:57;15.30;99.90
5346;DHT22;2695;49.444;11.054;2022-09-09T05:51:28;15.40;99.90
5346;DHT22;2695;49.444;11.054;2022-09-09T05:53:57;15.40;99.90
5346;DHT22;2695;49.444;11.054;2022-09-09T05:56:27;15.40;99.90
5346;DHT22;2695;49.444;11.054;2022-09-09T05:58:56;15.40;99.90
5346;DHT22;2695;49.444;11.054;2022-09-09T06:01:29;15.30;99.90
5346;DHT22;2695;49.444;11.054;2022-09-09T06:03:59;15.30;99.90
5346;DHT22;2695;49.444;11.054;2022-09-09T06:06:30;15.30;99.90
5346;DHT22;2695;49.444;11.054;2022-09-09T06:08:59;15.30;99.90
5346;DHT22;2695;49.444;11.054;2022-09-09T06:11:31;15.40;99.90
5346;DHT22;2695;49.444;11.054;2022-09-09T06:14:00;15.50;99.90
5346;DHT22;2695;49.444;11.054;2022-09-09T06:16:30;16.00;99.90
5346;DHT22;2695;49.444;11.054;2022-09-09T06:19:01;16.90;99.90
5346;DHT22;2695;49.444;11.054;2022-09-09T06:21:32;17.20;99.90
5346;DHT22;2695;49.444;11.054;2022-09-09T06:24:01;17.30;99.90
5346;DHT22;2695;49.444;11.054;2022-09-09T06:26:30;17.00;99.90
5346;DHT22;2695;49.444;11.054;2022-09-09T06:28:59;17.30;99.90
5346;DHT22;2695;49.444;11.054;2022-09-09T06:31:28;17.60;99.90
5346;DHT22;2695;49.444;11.054;2022-09-09T06:34:00;17.70;99.90
5346;DHT22;2695;49.444;11.054;2022-09-09T06:36:31;17.60;99.90
5346;DHT22;2695;49.444;11.054;2022-09-09T06:38:59;17.50;99.90
5346;DHT22;2695;49.444;11.054;2022-09-09T06:41:29;17.70;99.90
5346;DHT22;2695;49.444;11.054;2022-09-09T06:43:57;18.20;99.90
5346;DHT22;2695;49.444;11.054;2022-09-09T06:46:27;18.60;99.90
5346;DHT22;2695;49.444;11.054;2022-09-09T06:48:56;18.70;99.90
5346;DHT22;2695;49.444;11.054;2022-09-09T06:51:29;18.90;99.90
5346;DHT22;2695;49.444;11.054;2022-09-09T06:54:01;19.30;99.90
5346;DHT22;2695;49.444;11.054;2022-09-09T06:56:30;20.10;99.90
5346;DHT22;2695;49.444;11.054;2022-09-09T06:59:00;21.20;99.90
5346;DHT22;2695;49.444;11.054;2022-09-09T07:01:32;22.10;99.90
5346;DHT22;2695;49.444;11.054;2022-09-09T07:04:01;23.50;99.90
5346;DHT22;2695;49.444;11.054;2022-09-09T07:06:34;24.60;99.90
5346;DHT22;2695;49.444;11.054;2022-09-09T07:09:04;25.60;98.20
5346;DHT22;2695;49.444;11.054;2022-09-09T07:11:34;25.60;96.40
5346;DHT22;2695;49.444;11.054;2022-09-09T07:14:02;24.80;97.00
5346;DHT22;2695;49.444;11.054;2022-09-09T07:16:30;23.70;98.30
5346;DHT22;2695;49.444;11.054;2022-09-09T07:19:00;22.80;99.70
5346;DHT22;2695;49.444;11.054;2022-09-09T07:21:32;22.10;99.90
5346;DHT22;2695;49.444;11.054;2022-09-09T07:24:01;21.50;99.90
5346;DHT22;2695;49.444;11.054;2022-09-09T07:26:34;21.00;99.90
5346;DHT22;2695;49.444;11.054;2022-09-09T07:29:03;20.50;99.90
5346;DHT22;2695;49.444;11.054;2022-09-09T07:31:33;20.30;99.90
5346;DHT22;2695;49.444;11.054;2022-09-09T07:34:03;20.10;99.90
5346;DHT22;2695;49.444;11.054;2022-09-09T07:36:35;20.00;99.90
5346;DHT22;2695;49.444;11.054;2022-09-09T07:39:05;20.40;99.90
5346;DHT22;2695;49.444;11.054;2022-09-09T07:41:34;21.00;99.90
5346;DHT22;2695;49.444;11.054;2022-09-09T07:44:07;21.70;99.90
5346;DHT22;2695;49.444;11.054;2022-09-09T07:46:36;21.80;99.90
5346;DHT22;2695;49.444;11.054;2022-09-09T07:49:07;21.90;99.90
5346;DHT22;2695;49.444;11.054;2022-09-09T07:51:38;22.40;99.90
5346;DHT22;2695;49.444;11.054;2022-09-09T07:54:09;23.60;99.90
5346;DHT22;2695;49.444;11.054;2022-09-09T07:56:38;24.60;99.70
5346;DHT22;2695;49.444;11.054;2022-09-09T07:59:07;25.70;97.70
5346;DHT22;2695;49.444;11.054;2022-09-09T08:01:38;27.20;94.10
5346;DHT22;2695;49.444;11.054;2022-09-09T08:04:07;29.00;90.40
5346;DHT22;2695;49.444;11.054;2022-09-09T08:06:38;30.70;79.20
5346;DHT22;2695;49.444;11.054;2022-09-09T08:09:08;32.20;70.70
5346;DHT22;2695;49.444;11.054;2022-09-09T08:11:37;33.30;62.10
5346;DHT22;2695;49.444;11.054;2022-09-09T08:14:06;33.90;57.30
5346;DHT22;2695;49.444;11.054;2022-09-09T08:16:37;34.40;54.70
5346;DHT22;2695;49.444;11.054;2022-09-09T08:19:05;34.80;52.40
5346;DHT22;2695;49.444;11.054;2022-09-09T08:21:37;35.60;49.80
5346;DHT22;2695;49.444;11.054;2022-09-09T08:24:07;35.90;48.00
5346;DHT22;2695;49.444;11.054;2022-09-09T08:26:39;35.70;46.60
5346;DHT22;2695;49.444;11.054;2022-09-09T08:29:09;35.70;46.50
5346;DHT22;2695;49.444;11.054;2022-09-09T08:31:40;36.10;45.30
5346;DHT22;2695;49.444;11.054;2022-09-09T08:34:09;36.10;44.70
5346;DHT22;2695;49.444;11.054;2022-09-09T08:36:41;36.20;44.20
5346;DHT22;2695;49.444;11.054;2022-09-09T08:39:11;36.60;43.40
5346;DHT22;2695;49.444;11.054;2022-09-09T08:42:05;37.10;42.60
5346;DHT22;2695;49.444;11.054;2022-09-09T08:44:45;37.40;41.50
5346;DHT22;2695;49.444;11.054;2022-09-09T08:47:21;37.60;40.40
5346;DHT22;2695;49.444;11.054;2022-09-09T08:50:11;38.00;39.50
5346;DHT22;2695;49.444;11.054;2022-09-09T08:52:50;38.30;38.50
5346;DHT22;2695;49.444;11.054;2022-09-09T08:55:24;38.10;38.90
5346;DHT22;2695;49.444;11.054;2022-09-09T08:57:55;38.10;38.10
5346;DHT22;2695;49.444;11.054;2022-09-09T09:00:31;38.40;37.70
5346;DHT22;2695;49.444;11.054;2022-09-09T09:03:08;38.60;37.00
5346;DHT22;2695;49.444;11.054;2022-09-09T09:05:46;38.90;36.10
5346;DHT22;2695;49.444;11.054;2022-09-09T09:08:21;39.00;36.30
5346;DHT22;2695;49.444;11.054;2022-09-09T09:10:55;39.30;35.70
5346;DHT22;2695;49.444;11.054;2022-09-09T09:13:31;39.00;35.60
5346;DHT22;2695;49.444;11.054;2022-09-09T09:16:13;38.90;35.90
5346;DHT22;2695;49.444;11.054;2022-09-09T09:18:42;39.30;34.40
5346;DHT22;2695;49.444;11.054;2022-09-09T09:21:13;39.40;33.20
5346;DHT22;2695;49.444;11.054;2022-09-09T09:23:53;39.20;33.30
5346;DHT22;2695;49.444;11.054;2022-09-09T09:26:25;38.90;33.10
5346;DHT22;2695;49.444;11.054;2022-09-09T09:28:56;38.60;33.40
5346;DHT22;2695;49.444;11.054;2022-09-09T09:31:26;38.30;33.50
5346;DHT22;2695;49.444;11.054;2022-09-09T09:33:55;38.20;33.80
5346;DHT22;2695;49.444;11.054;2022-09-09T09:36:34;38.10;33.60
5346;DHT22;2695;49.444;11.054;2022-09-09T09:39:04;37.80;33.80
5346;DHT22;2695;49.444;11.054;2022-09-09T09:41:52;37.60;34.60
5346;DHT22;2695;49.444;11.054;2022-09-09T09:44:26;37.20;34.60
5346;DHT22;2695;49.444;11.054;2022-09-09T09:47:06;37.00;35.30
5346;DHT22;2695;49.444;11.054;2022-09-09T09:49:34;37.00;35.90
5346;DHT22;2695;49.444;11.054;2022-09-09T09:52:04;37.00;35.00
5346;DHT22;2695;49.444;11.054;2022-09-09T09:54:38;36.90;34.90
5346;DHT22;2695;49.444;11.054;2022-09-09T09:57:11;36.40;35.20
5346;DHT22;2695;49.444;11.054;2022-09-09T09:59:39;36.40;35.00
5346;DHT22;2695;49.444;11.054;2022-09-09T10:02:16;36.40;36.00
5346;DHT22;2695;49.444;11.054;2022-09-09T10:04:45;36.80;35.40
5346;DHT22;2695;49.444;11.054;2022-09-09T10:07:19;36.40;35.10
5346;DHT22;2695;49.444;11.054;2022-09-09T10:09:52;35.00;36.70
5346;DHT22;2695;49.444;11.054;2022-09-09T10:12:35;34.50;37.20
5346;DHT22;2695;49.444;11.054;2022-09-09T10:15:19;35.00;37.20
5346;DHT22;2695;49.444;11.054;2022-09-09T10:17:57;35.10;37.00
5346;DHT22;2695;49.444;11.054;2022-09-09T10:20:35;34.60;37.70
5346;DHT22;2695;49.444;11.054;2022-09-09T10:23:11;34.70;38.10
5346;DHT22;2695;49.444;11.054;2022-09-09T10:25:57;35.30;37.80
5346;DHT22;2695;49.444;11.054;2022-09-09T10:28:37;35.90;36.90
5346;DHT22;2695;49.444;11.054;2022-09-09T10:31:19;36.60;36.10
5346;DHT22;2695;49.444;11.054;2022-09-09T10:33:51;36.80;35.40
5346;DHT22;2695;49.444;11.054;2022-09-09T10:36:24;36.40;35.70
5346;DHT22;2695;49.444;11.054;2022-09-09T10:38:57;35.80;36.20
5346;DHT22;2695;49.444;11.054;2022-09-09T10:41:39;35.40;36.40
5346;DHT22;2695;49.444;11.054;2022-09-09T10:44:30;34.80;36.60
5346;DHT22;2695;49.444;11.054;2022-09-09T10:50:12;32.10;41.20
5346;DHT22;2695;49.444;11.054;2022-09-09T10:52:47;32.30;41.40
5346;DHT22;2695;49.444;11.054;2022-09-09T10:55:20;32.40;40.90
5346;DHT22;2695;49.444;11.054;2022-09-09T10:57:58;31.60;41.80
5346;DHT22;2695;49.444;11.054;2022-09-09T11:00:37;30.70;43.60
5346;DHT22;2695;49.444;11.054;2022-09-09T11:03:09;29.90;44.60
5346;DHT22;2695;49.444;11.054;2022-09-09T11:05:44;29.50;46.50
5346;DHT22;2695;49.444;11.054;2022-09-09T11:08:17;29.20;47.60
5346;DHT22;2695;49.444;11.054;2022-09-09T11:10:51;28.70;48.80
5346;DHT22;2695;49.444;11.054;2022-09-09T11:13:25;28.30;49.50
5346;DHT22;2695;49.444;11.054;2022-09-09T11:16:01;28.20;50.40
5346;DHT22;2695;49.444;11.054;2022-09-09T11:18:37;28.10;50.70
5346;DHT22;2695;49.444;11.054;2022-09-09T11:21:12;27.90;50.50
5346;DHT22;2695;49.444;11.054;2022-09-09T11:23:45;27.70;51.40
5346;DHT22;2695;49.444;11.054;2022-09-09T11:26:18;27.70;52.10
5346;DHT22;2695;49.444;11.054;2022-09-09T11:29:03;28.00;51.40
5346;DHT22;2695;49.444;11.054;2022-09-09T11:31:44;28.20;50.40
5346;DHT22;2695;49.444;11.054;2022-09-09T11:34:23;28.40;49.80
5346;DHT22;2695;49.444;11.054;2022-09-09T11:37:17;28.60;49.80
5346;DHT22;2695;49.444;11.054;2022-09-09T11:40:15;28.40;49.20
5346;DHT22;2695;49.444;11.054;2022-09-09T11:42:44;28.00;49.50
5346;DHT22;2695;49.444;11.054;2022-09-09T11:45:23;27.90;50.30
5346;DHT22;2695;49.444;11.054;2022-09-09T11:47:54;28.10;50.50
5346;DHT22;2695;49.444;11.054;2022-09-09T11:50:32;28.40;49.90
5346;DHT22;2695;49.444;11.054;2022-09-09T11:53:21;28.30;49.70
5346;DHT22;2695;49.444;11.054;2022-09-09T11:56:04;28.00;50.20
5346;DHT22;2695;49.444;11.054;2022-09-09T11:58:37;27.40;50.00
5346;DHT22;2695;49.444;11.054;2022-09-09T12:01:25;26.70;51.90
5346;DHT22;2695;49.444;11.054;2022-09-09T12:04:02;26.30;52.50
5346;DHT22;2695;49.444;11.054;2022-09-09T12:06:42;26.00;52.60
5346;DHT22;2695;49.444;11.054;2022-09-09T12:09:25;26.00;53.60
5346;DHT22;2695;49.444;11.054;2022-09-09T12:12:22;25.70;53.80
5346;DHT22;2695;49.444;11.054;2022-09-09T12:15:18;25.60;55.70
5346;DHT22;2695;49.444;11.054;2022-09-09T12:17:49;25.20;57.20
5346;DHT22;2695;49.444;11.054;2022-09-09T12:20:20;24.90;60.20
5346;DHT22;2695;49.444;11.054;2022-09-09T12:23:08;24.40;60.60
5346;DHT22;2695;49.444;11.054;2022-09-09T12:26:15;24.30;61.10
5346;DHT22;2695;49.444;11.054;2022-09-09T12:28:54;24.50;58.10
5346;DHT22;2695;49.444;11.054;2022-09-09T12:31:27;24.80;57.30
5346;DHT22;2695;49.444;11.054;2022-09-09T12:34:11;25.20;55.30
5346;DHT22;2695;49.444;11.054;2022-09-09T12:36:44;25.50;53.90
5346;DHT22;2695;49.444;11.054;2022-09-09T12:39:22;25.60;52.30
5346;DHT22;2695;49.444;11.054;2022-09-09T12:41:53;25.50;53.30
5346;DHT22;2695;49.444;11.054;2022-09-09T12:44:24;25.30;53.20
5346;DHT22;2695;49.444;11.054;2022-09-09T12:46:53;25.00;54.80
5346;DHT22;2695;49.444;11.054;2022-09-09T12:49:28;24.80;56.20
5346;DHT22;2695;49.444;11.054;2022-09-09T12:51:57;24.80;58.00
5346;DHT22;2695;49.444;11.054;2022-09-09T12:54:27;25.00;58.30
5346;DHT22;2695;49.444;11.054;2022-09-09T12:56:55;25.00;58.40
5346;DHT22;2695;49.444;11.054;2022-09-09T12:59:24;25.00;58.00
5346;DHT22;2695;49.444;11.054;2022-09-09T13:01:56;25.00;57.00
5346;DHT22;2695;49.444;11.054;2022-09-09T13:04:26;25.10;57.70
5346;DHT22;2695;49.444;11.054;2022-09-09T13:07:05;24.80;58.10
5346;DHT22;2695;49.444;11.054;2022-09-09T13:09:42;24.70;59.60
5346;DHT22;2695;49.444;11.054;2022-09-09T13:12:14;24.80;60.00
5346;DHT22;2695;49.444;11.054;2022-09-09T13:14:45;24.80;60.70
5346;DHT22;2695;49.444;11.054;2022-09-09T13:17:19;24.80;60.50
5346;DHT22;2695;49.444;11.054;2022-09-09T13:19:50;24.70;61.60
5346;DHT22;2695;49.444;11.054;2022-09-09T13:22:30;24.70;61.00
5346;DHT22;2695;49.444;11.054;2022-09-09T13:25:02;24.80;61.70
5346;DHT22;2695;49.444;11.054;2022-09-09T13:27:33;24.80;61.20
5346;DHT22;2695;49.444;11.054;2022-09-09T13:32:45;25.10;59.80
5346;DHT22;2695;49.444;11.054;2022-09-09T13:35:24;25.20;60.10
5346;DHT22;2695;49.444;11.054;2022-09-09T13:37:52;25.30;60.10
5346;DHT22;2695;49.444;11.054;2022-09-09T13:40:22;25.30;58.80
5346;DHT22;2695;49.444;11.054;2022-09-09T13:42:53;25.20;59.20
5346;DHT22;2695;49.444;11.054;2022-09-09T13:45:25;25.10;60.20
5346;DHT22;2695;49.444;11.054;2022-09-09T13:47:54;24.90;61.40
5346;DHT22;2695;49.444;11.054;2022-09-09T13:50:25;24.70;61.50
5346;DHT22;2695;49.444;11.054;2022-09-09T13:52:55;24.60;61.20
5346;DHT22;2695;49.444;11.054;2022-09-09T13:55:26;24.70;59.60
5346;DHT22;2695;49.444;11.054;2022-09-09T13:57:55;24.70;60.00
5346;DHT22;2695;49.444;11.054;2022-09-09T14:00:24;24.70;60.60
5346;DHT22;2695;49.444;11.054;2022-09-09T14:02:53;24.60;59.60
5346;DHT22;2695;49.444;11.054;2022-09-09T14:05:23;24.50;59.50
5346;DHT22;2695;49.444;11.054;2022-09-09T14:07:51;24.50;59.80
5346;DHT22;2695;49.444;11.054;2022-09-09T14:10:20;24.50;60.80
5346;DHT22;2695;49.444;11.054;2022-09-09T14:12:49;24.60;60.70
5346;DHT22;2695;49.444;11.054;2022-09-09T14:15:17;24.80;59.80
5346;DHT22;2695;49.444;11.054;2022-09-09T14:17:45;24.90;59.80
5346;DHT22;2695;49.444;11.054;2022-09-09T14:20:15;25.00;59.80
5346;DHT22;2695;49.444;11.054;2022-09-09T14:22:45;25.10;60.10
5346;DHT22;2695;49.444;11.054;2022-09-09T14:25:13;25.10;60.90
5346;DHT22;2695;49.444;11.054;2022-09-09T14:27:42;25.10;62.00
5346;DHT22;2695;49.444;11.054;2022-09-09T14:30:15;25.20;61.30
5346;DHT22;2695;49.444;11.054;2022-09-09T14:32:47;25.20;61.20
5346;DHT22;2695;49.444;11.054;2022-09-09T14:35:17;25.20;62.00
5346;DHT22;2695;49.444;11.054;2022-09-09T14:37:47;25.20;62.50
5346;DHT22;2695;49.444;11.054;2022-09-09T14:40:17;25.00;62.70
5346;DHT22;2695;49.444;11.054;2022-09-09T14:42:45;24.80;64.30
5346;DHT22;2695;49.444;11.054;2022-09-09T14:45:14;24.60;64.90
5346;DHT22;2695;49.444;11.054;2022-09-09T14:47:42;24.40;65.90
5346;DHT22;2695;49.444;11.054;2022-09-09T14:50:10;24.30;66.70
5346;DHT22;2695;49.444;11.054;2022-09-09T14:52:40;24.20;66.80
5346;DHT22;2695;49.444;11.054;2022-09-09T14:55:10;24.10;67.10
5346;DHT22;2695;49.444;11.054;2022-09-09T14:57:40;24.00;69.00
5346;DHT22;2695;49.444;11.054;2022-09-09T15:00:09;23.90;68.70
5346;DHT22;2695;49.444;11.054;2022-09-09T15:02:38;23.90;69.40
5346;DHT22;2695;49.444;11.054;2022-09-09T15:05:07;23.80;70.30
5346;DHT22;2695;49.444;11.054;2022-09-09T15:07:35;23.70;70.80
5346;DHT22;2695;49.444;11.054;2022-09-09T15:10:04;23.60;72.00
5346;DHT22;2695;49.444;11.054;2022-09-09T15:12:34;23.60;72.70
5346;DHT22;2695;49.444;11.054;2022-09-09T15:15:03;23.50;71.90
5346;DHT22;2695;49.444;11.054;2022-09-09T15:17:32;23.50;72.40
5346;DHT22;2695;49.444;11.054;2022-09-09T15:20:00;23.70;71.90
5346;DHT22;2695;49.444;11.054;2022-09-09T15:22:29;23.80;71.30
5346;DHT22;2695;49.444;11.054;2022-09-09T15:25:00;23.80;71.30
5346;DHT22;2695;49.444;11.054;2022-09-09T15:27:28;23.70;71.30
5346;DHT22;2695;49.444;11.054;2022-09-09T15:29:59;23.60;71.50
5346;DHT22;2695;49.444;11.054;2022-09-09T15:32:27;23.40;72.50
5346;DHT22;2695;49.444;11.054;2022-09-09T15:34:56;23.30;73.20
5346;DHT22;2695;49.444;11.054;2022-09-09T15:37:24;23.20;74.00
5346;DHT22;2695;49.444;11.054;2022-09-09T15:39:52;23.20;73.80
5346;DHT22;2695;49.444;11.054;2022-09-09T15:42:20;23.10;74.40
5346;DHT22;2695;49.444;11.054;2022-09-09T15:44:48;23.00;74.40
5346;DHT22;2695;49.444;11.054;2022-09-09T15:47:18;23.00;74.30
5346;DHT22;2695;49.444;11.054;2022-09-09T15:49:46;23.00;73.10
5346;DHT22;2695;49.444;11.054;2022-09-09T15:52:14;22.90;71.50
5346;DHT22;2695;49.444;11.054;2022-09-09T15:54:42;22.80;70.60
5346;DHT22;2695;49.444;11.054;2022-09-09T15:57:12;22.80;71.50
5346;DHT22;2695;49.444;11.054;2022-09-09T15:59:41;22.70;68.80
5346;DHT22;2695;49.444;11.054;2022-09-09T16:02:11;22.70;66.80
5346;DHT22;2695;49.444;11.054;2022-09-09T16:04:41;22.60;66.40
5346;DHT22;2695;49.444;11.054;2022-09-09T16:07:09;22.50;66.30
5346;DHT22;2695;49.444;11.054;2022-09-09T16:09:37;22.40;66.80
5346;DHT22;2695;49.444;11.054;2022-09-09T16:12:06;22.30;67.00
5346;DHT22;2695;49.444;11.054;2022-09-09T16:14:36;22.30;66.80
5346;DHT22;2695;49.444;11.054;2022-09-09T16:17:06;22.20;67.40
5346;DHT22;2695;49.444;11.054;2022-09-09T16:19:34;22.20;67.80
5346;DHT22;2695;49.444;11.054;2022-09-09T16:22:04;22.20;67.70